Time;durP1;ratioP1;P1;durP2;ratioP2;P2;SDS_P1;SDS_P2;PMS_P1;PMS_P2;Temp;Humidity;BMP_temperature;BMP_pressure;BME280_temperature;BME280_humidity;BME280_pressure;Samples;Min_cycle;Max_cycle;Signal;HPM_P1;HPM_P2
2022/06/25 00:01:13;;;;;;;;;;;;;;;;;;5073630;28;19931;-70
2022/06/25 00:03:39;;;;;;;;;;;;;;;;;;5073548;28;20028;-70
2022/06/25 00:06:05;;;;;;;;;;;;;;;;;;5072743;28;20026;-69
2022/06/25 00:08:31;;;;;;;;;;;;;;;;;;5073754;28;20003;-69
2022/06/25 00:10:57;;;;;;;;;;;;;;;;;;5073481;28;19920;-69
2022/06/25 00:13:23;;;;;;;;;;;;;;;;;;5072740;28;20317;-69
2022/06/25 00:15:49;;;;;;;;;;;;;;;;;;5073511;28;20314;-69
2022/06/25 00:18:14;;;;;;;;;;;;;;;;;;5073500;28;20052;-69
2022/06/25 00:20:40;;;;;;;;;;;;;;;;;;5072611;28;19942;-69
2022/06/25 00:23:06;;;;;;;;;;;;;;;;;;5073423;28;19924;-69
2022/06/25 00:25:32;;;;;;;;;;;;;;;;;;5076102;28;20036;-69
2022/06/25 00:27:58;;;;;;;;;;;;;;;;;;5092773;28;19928;-69
2022/06/25 00:30:24;;;;;;;;;;;;;;;;;;5093036;28;19975;-69
2022/06/25 00:32:50;;;;;;;;;;;;;;;;;;5093374;28;19963;-69
2022/06/25 00:35:16;;;;;;;;;;;;;;;;;;5092762;28;19978;-69
2022/06/25 00:37:42;;;;;;;;;;;;;;;;;;5093177;28;19919;-69
2022/06/25 00:40:08;;;;;;;;;;;;;;;;;;5092764;28;19924;-69
2022/06/25 00:42:34;;;;;;;;;;;;;;;;;;5092106;28;19920;-69
2022/06/25 00:45:00;;;;;;;;;;;;;;;;;;5093123;28;19920;-69
2022/06/25 00:47:26;;;;;;;;;;;;;;;;;;5092883;28;19927;-69
2022/06/25 00:49:53;;;;;;;;;;;;;;;;;;5092240;28;19970;-69
2022/06/25 00:52:19;;;;;;;;;;;;;;;;;;5092638;28;19970;-69
2022/06/25 00:54:45;;;;;;;;;;;;;;;;;;5092827;28;19970;-69
2022/06/25 00:57:11;;;;;;;;;;;;;;;;;;5092101;28;19927;-69
2022/06/25 00:59:37;;;;;;;;;;;;;;;;;;5092920;28;19920;-69
2022/06/25 01:02:02;;;;;;;;;;;;;;;;;;5092818;28;19931;-69
2022/06/25 01:04:28;;;;;;;;;;;;;;;;;;5092114;28;19920;-69
2022/06/25 01:06:54;;;;;;;;;;;;;;;;;;5092704;28;19943;-69
2022/06/25 01:09:20;;;;;;;;;;;;;;;;;;5092735;28;19924;-69
2022/06/25 01:11:47;;;;;;;;;;;;;;;;;;5091811;28;20025;-69
2022/06/25 01:14:14;;;;;;;;;;;;;;;;;;5092574;28;20396;-69
2022/06/25 01:16:40;;;;;;;;;;;;;;;;;;5091781;28;19920;-69
2022/06/25 01:19:06;;;;;;;;;;;;;;;;;;5091863;28;20278;-69
2022/06/25 01:21:32;;;;;;;;;;;;;;;;;;5092410;28;19958;-69
2022/06/25 01:23:58;;;;;;;;;;;;;;;;;;5092240;28;19956;-69
2022/06/25 01:26:24;;;;;;;;;;;;;;;;;;5081696;28;19947;-69
2022/06/25 01:28:50;;;;;;;;;;;;;;;;;;5072406;28;19920;-69
2022/06/25 01:31:16;;;;;;;;;;;;;;;;;;5072063;28;19943;-69
2022/06/25 01:33:41;;;;;;;;;;;;;;;;;;5071251;28;19935;-69
2022/06/25 01:36:07;;;;;;;;;;;;;;;;;;5072080;28;19924;-69
2022/06/25 01:38:33;;;;;;;;;;;;;;;;;;5072117;28;19920;-69
2022/06/25 01:40:59;;;;;;;;;;;;;;;;;;5071385;28;19943;-69
2022/06/25 01:43:25;;;;;;;;;;;;;;;;;;5071671;28;19925;-69
2022/06/25 01:45:51;;;;;;;;;;;;;;;;;;5071758;28;20081;-69
2022/06/25 01:48:17;;;;;;;;;;;;;;;;;;5071735;28;19921;-69
2022/06/25 01:50:43;;;;;;;;;;;;;;;;;;5070222;28;19921;-69
2022/06/25 01:53:09;;;;;;;;;;;;;;;;;;5071741;28;19924;-69
2022/06/25 01:55:35;;;;;;;;;;;;;;;;;;5072016;28;19935;-69
2022/06/25 01:58:01;;;;;;;;;;;;;;;;;;5071509;28;19943;-69
2022/06/25 02:00:27;;;;;;;;;;;;;;;;;;5071998;28;19921;-69
2022/06/25 02:02:53;;;;;;;;;;;;;;;;;;5072113;28;19925;-69
2022/06/25 02:05:56;;;;;;;;;;;;;;;;;;5071332;28;19920;-69
2022/06/25 02:08:04;;;;;;;;;;;;;;;;;;5071390;28;19935;-69
2022/06/25 02:10:30;;;;;;;;;;;;;;;;;;5071291;28;19924;-69
2022/06/25 02:12:56;;;;;;;;;;;;;;;;;;5071661;28;19994;-69
2022/06/25 02:15:22;;;;;;;;;;;;;;;;;;5071764;28;20003;-69
2022/06/25 02:17:48;;;;;;;;;;;;;;;;;;5071659;28;20085;-69
2022/06/25 02:20:14;;;;;;;;;;;;;;;;;;5071060;28;19920;-69
2022/06/25 02:22:40;;;;;;;;;;;;;;;;;;5071778;28;19945;-69
2022/06/25 02:25:06;;;;;;;;;;;;;;;;;;5071602;28;19920;-69
2022/06/25 02:27:32;;;;;;;;;;;;;;;;;;5090582;28;20271;-69
2022/06/25 02:29:58;;;;;;;;;;;;;;;;;;5077322;28;19978;-69
2022/06/25 02:32:24;;;;;;;;;;;;;;;;;;5095546;28;19924;-69
2022/06/25 02:34:50;;;;;;;;;;;;;;;;;;5095050;28;19924;-69
2022/06/25 02:37:16;;;;;;;;;;;;;;;;;;5095632;28;20006;-69
2022/06/25 02:39:42;;;;;;;;;;;;;;;;;;5095662;28;19920;-69
2022/06/25 02:42:08;;;;;;;;;;;;;;;;;;5094679;28;19920;-69
2022/06/25 02:44:34;;;;;;;;;;;;;;;;;;5095113;28;20128;-69
2022/06/25 02:46:59;;;;;;;;;;;;;;;;;;5095446;28;19927;-69
2022/06/25 02:49:26;;;;;;;;;;;;;;;;;;5094566;28;19986;-69
2022/06/25 02:51:51;;;;;;;;;;;;;;;;;;5094998;28;19934;-69
2022/06/25 02:54:17;;;;;;;;;;;;;;;;;;5095258;28;19924;-69
2022/06/25 02:59:28;;;;;;;;;;;;;;;;;;5095354;28;20293;-69
2022/06/25 03:01:55;;;;;;;;;;;;;;;;;;5095121;28;20030;-69
2022/06/25 03:04:21;;;;;;;;;;;;;;;;;;5094272;28;19920;-70
2022/06/25 03:06:47;;;;;;;;;;;;;;;;;;5094989;28;19924;-70
2022/06/25 03:09:13;;;;;;;;;;;;;;;;;;5094786;28;19920;-70
2022/06/25 03:11:39;;;;;;;;;;;;;;;;;;5094166;28;19969;-70
2022/06/25 03:14:05;;;;;;;;;;;;;;;;;;5094805;28;19993;-69
2022/06/25 03:16:32;;;;;;;;;;;;;;;;;;5094776;28;19920;-69
2022/06/25 03:18:58;;;;;;;;;;;;;;;;;;5094342;28;20388;-69
2022/06/25 03:21:23;;;;;;;;;;;;;;;;;;5093397;28;19920;-69
2022/06/25 03:23:49;;;;;;;;;;;;;;;;;;5094867;28;19920;-69
2022/06/25 03:26:15;;;;;;;;;;;;;;;;;;5085055;28;19943;-69
2022/06/25 03:28:41;;;;;;;;;;;;;;;;;;5074496;28;19921;-69
2022/06/25 03:31:07;;;;;;;;;;;;;;;;;;5074275;28;20268;-69
2022/06/25 03:33:34;;;;;;;;;;;;;;;;;;5073566;28;19928;-69
2022/06/25 03:36:00;;;;;;;;;;;;;;;;;;5074298;28;19920;-69
2022/06/25 03:38:26;;;;;;;;;;;;;;;;;;5073434;28;19926;-69
2022/06/25 03:41:32;;;;;;;;;;;;;;;;;;5073317;28;19924;-69
2022/06/25 03:43:38;;;;;;;;;;;;;;;;;;5073472;28;19932;-69
2022/06/25 03:46:04;;;;;;;;;;;;;;;;;;5073906;28;19921;-69
2022/06/25 03:48:30;;;;;;;;;;;;;;;;;;5073410;28;20347;-69
2022/06/25 03:50:56;;;;;;;;;;;;;;;;;;5073933;28;19985;-69
2022/06/25 03:53:22;;;;;;;;;;;;;;;;;;5073825;28;19994;-69
2022/06/25 03:55:48;;;;;;;;;;;;;;;;;;5073174;28;19928;-69
2022/06/25 03:58:13;;;;;;;;;;;;;;;;;;5073795;28;19943;-69
2022/06/25 04:00:39;;;;;;;;;;;;;;;;;;5073632;28;19966;-69
2022/06/25 04:03:05;;;;;;;;;;;;;;;;;;5073245;28;19943;-69
2022/06/25 04:05:31;;;;;;;;;;;;;;;;;;5073771;28;19920;-70
2022/06/25 04:07:57;;;;;;;;;;;;;;;;;;5073565;28;19975;-69
2022/06/25 04:10:23;;;;;;;;;;;;;;;;;;5072643;28;19928;-69
2022/06/25 04:12:49;;;;;;;;;;;;;;;;;;5073555;28;19950;-69
2022/06/25 04:15:15;;;;;;;;;;;;;;;;;;5073515;28;19982;-69
2022/06/25 04:17:41;;;;;;;;;;;;;;;;;;5072743;28;19990;-69
2022/06/25 04:20:07;;;;;;;;;;;;;;;;;;5073394;28;20021;-69
2022/06/25 04:22:33;;;;;;;;;;;;;;;;;;5072997;28;19962;-69
2022/06/25 04:24:59;;;;;;;;;;;;;;;;;;5072778;28;19924;-69
2022/06/25 04:30:09;;;;;;;;;;;;;;;;;;5093462;28;20416;-69
2022/06/25 04:32:35;;;;;;;;;;;;;;;;;;5092817;28;19926;-69
2022/06/25 04:35:01;;;;;;;;;;;;;;;;;;5093314;28;20060;-69
2022/06/25 04:37:27;;;;;;;;;;;;;;;;;;5093001;28;19927;-69
2022/06/25 04:39:53;;;;;;;;;;;;;;;;;;5092472;28;19937;-69
2022/06/25 04:42:19;;;;;;;;;;;;;;;;;;5093098;28;19968;-69
2022/06/25 04:44:45;;;;;;;;;;;;;;;;;;5092822;28;19947;-69
2022/06/25 04:47:11;;;;;;;;;;;;;;;;;;5092409;28;19974;-69
2022/06/25 04:49:37;;;;;;;;;;;;;;;;;;5092940;28;19943;-69
2022/06/25 04:52:03;;;;;;;;;;;;;;;;;;5092248;28;20006;-69
2022/06/25 04:54:29;;;;;;;;;;;;;;;;;;5092360;28;19972;-69
2022/06/25 04:56:55;;;;;;;;;;;;;;;;;;5092920;28;20370;-69
2022/06/25 04:59:21;;;;;;;;;;;;;;;;;;5091470;28;19966;-69
2022/06/25 05:01:47;;;;;;;;;;;;;;;;;;5092196;28;20308;-69
2022/06/25 05:04:13;;;;;;;;;;;;;;;;;;5092788;28;19972;-69
2022/06/25 05:06:39;;;;;;;;;;;;;;;;;;5092695;28;20030;-69
2022/06/25 05:09:05;;;;;;;;;;;;;;;;;;5090489;28;19927;-69
2022/06/25 05:11:31;;;;;;;;;;;;;;;;;;5092713;28;20286;-70
2022/06/25 05:13:57;;;;;;;;;;;;;;;;;;5092654;28;19947;-70
2022/06/25 05:16:23;;;;;;;;;;;;;;;;;;5091899;28;19924;-70
2022/06/25 05:18:49;;;;;;;;;;;;;;;;;;5092527;28;19943;-70
2022/06/25 05:21:14;;;;;;;;;;;;;;;;;;5092560;28;19920;-70
2022/06/25 05:23:40;;;;;;;;;;;;;;;;;;5092056;28;19926;-70
2022/06/25 05:26:06;;;;;;;;;;;;;;;;;;5083654;28;19936;-70
2022/06/25 05:28:32;;;;;;;;;;;;;;;;;;5072162;28;19931;-70
2022/06/25 05:30:58;;;;;;;;;;;;;;;;;;5071220;28;20367;-69
2022/06/25 05:33:24;;;;;;;;;;;;;;;;;;5072089;28;19925;-69
2022/06/25 05:35:50;;;;;;;;;;;;;;;;;;5070717;28;19962;-69
2022/06/25 05:38:16;;;;;;;;;;;;;;;;;;5071249;28;19920;-69
2022/06/25 05:40:42;;;;;;;;;;;;;;;;;;5072146;28;19928;-69
2022/06/25 05:43:08;;;;;;;;;;;;;;;;;;5071825;28;19928;-69
2022/06/25 05:45:34;;;;;;;;;;;;;;;;;;5071368;28;20015;-69
2022/06/25 05:48:00;;;;;;;;;;;;;;;;;;5070555;28;19920;-69
2022/06/25 05:50:26;;;;;;;;;;;;;;;;;;5072002;28;20359;-69
2022/06/25 05:52:54;;;;;;;;;;;;;;;;;;5071471;28;19931;-69
2022/06/25 05:55:20;;;;;;;;;;;;;;;;;;5072102;28;19998;-69
2022/06/25 05:57:46;;;;;;;;;;;;;;;;;;5071825;28;20334;-69
2022/06/25 06:00:12;;;;;;;;;;;;;;;;;;5071192;28;19947;-69
2022/06/25 06:02:38;;;;;;;;;;;;;;;;;;5073872;28;19995;-69
2022/06/25 06:05:04;;;;;;;;;;;;;;;;;;5075990;28;19959;-69
2022/06/25 06:07:30;;;;;;;;;;;;;;;;;;5075066;28;20433;-69
2022/06/25 06:09:56;;;;;;;;;;;;;;;;;;5075850;28;19943;-69
2022/06/25 06:12:22;;;;;;;;;;;;;;;;;;5075884;28;20338;-69
2022/06/25 06:14:48;;;;;;;;;;;;;;;;;;5075021;28;19951;-69
2022/06/25 06:17:14;;;;;;;;;;;;;;;;;;5075665;28;20301;-69
2022/06/25 06:19:40;;;;;;;;;;;;;;;;;;5075651;28;19924;-69
2022/06/25 06:22:06;;;;;;;;;;;;;;;;;;5075252;28;19924;-69
2022/06/25 06:24:32;;;;;;;;;;;;;;;;;;5075391;28;19924;-70
2022/06/25 06:27:00;;;;;;;;;;;;;;;;;;5090323;28;19924;-70
2022/06/25 06:29:26;;;;;;;;;;;;;;;;;;5094088;28;19927;-69
2022/06/25 06:31:52;;;;;;;;;;;;;;;;;;5095028;28;19920;-69
2022/06/25 06:34:18;;;;;;;;;;;;;;;;;;5095758;28;19958;-69
2022/06/25 06:36:44;;;;;;;;;;;;;;;;;;5095484;28;19924;-69
2022/06/25 06:39:10;;;;;;;;;;;;;;;;;;5094902;28;19920;-69
2022/06/25 06:41:37;;;;;;;;;;;;;;;;;;5095412;28;19920;-69
2022/06/25 06:44:03;;;;;;;;;;;;;;;;;;5094950;28;20011;-69
2022/06/25 06:46:29;;;;;;;;;;;;;;;;;;5094738;28;19995;-69
2022/06/25 06:48:55;;;;;;;;;;;;;;;;;;5095042;28;19924;-69
2022/06/25 06:51:21;;;;;;;;;;;;;;;;;;5095135;28;20286;-69
2022/06/25 06:53:47;;;;;;;;;;;;;;;;;;5094655;28;19935;-69
2022/06/25 06:56:13;;;;;;;;;;;;;;;;;;5095267;28;19920;-69
2022/06/25 06:58:39;;;;;;;;;;;;;;;;;;5094801;28;19943;-69
2022/06/25 07:01:05;;;;;;;;;;;;;;;;;;5093188;28;19927;-69
2022/06/25 07:03:31;;;;;;;;;;;;;;;;;;5095126;28;19920;-69
2022/06/25 07:05:57;;;;;;;;;;;;;;;;;;5094937;28;19920;-69
2022/06/25 07:08:23;;;;;;;;;;;;;;;;;;5094066;28;19980;-69
2022/06/25 07:10:49;;;;;;;;;;;;;;;;;;5094905;28;20006;-69
2022/06/25 07:13:15;;;;;;;;;;;;;;;;;;5094475;28;19920;-69
2022/06/25 07:15:41;;;;;;;;;;;;;;;;;;5093903;28;19920;-69
2022/06/25 07:18:07;;;;;;;;;;;;;;;;;;5094829;28;20376;-69
2022/06/25 07:20:33;;;;;;;;;;;;;;;;;;5094559;28;19924;-69
2022/06/25 07:22:59;;;;;;;;;;;;;;;;;;5093985;28;20023;-70
2022/06/25 07:25:25;;;;;;;;;;;;;;;;;;5092771;28;19985;-70
2022/06/25 07:27:51;;;;;;;;;;;;;;;;;;5074404;28;20374;-70
2022/06/25 07:30:18;;;;;;;;;;;;;;;;;;5073627;28;19956;-70
2022/06/25 07:32:44;;;;;;;;;;;;;;;;;;5074342;28;19921;-70
2022/06/25 07:35:10;;;;;;;;;;;;;;;;;;5074128;28;19934;-70
2022/06/25 07:37:36;;;;;;;;;;;;;;;;;;5073224;28;20027;-70
2022/06/25 07:40:02;;;;;;;;;;;;;;;;;;5072566;28;19925;-70
2022/06/25 07:42:30;;;;;;;;;;;;;;;;;;5073668;28;19930;-70
2022/06/25 07:44:56;;;;;;;;;;;;;;;;;;5073480;28;19920;-70
2022/06/25 07:47:22;;;;;;;;;;;;;;;;;;5073835;28;20536;-70
2022/06/25 07:52:34;;;;;;;;;;;;;;;;;;5073241;28;19924;-70
2022/06/25 07:55:00;;;;;;;;;;;;;;;;;;5073772;28;19931;-70
2022/06/25 07:57:26;;;;;;;;;;;;;;;;;;5073731;28;19920;-70
2022/06/25 07:59:52;;;;;;;;;;;;;;;;;;5073274;28;19967;-70
2022/06/25 08:02:18;;;;;;;;;;;;;;;;;;5073832;28;19952;-70
2022/06/25 08:04:44;;;;;;;;;;;;;;;;;;5073676;28;19920;-70
2022/06/25 08:07:10;;;;;;;;;;;;;;;;;;5073124;28;19920;-70
2022/06/25 08:09:36;;;;;;;;;;;;;;;;;;5073578;28;20007;-70
2022/06/25 08:12:04;;;;;;;;;;;;;;;;;;5072277;28;20015;-70
2022/06/25 08:14:29;;;;;;;;;;;;;;;;;;5072545;28;19925;-70
2022/06/25 08:16:55;;;;;;;;;;;;;;;;;;5073382;28;19920;-70
2022/06/25 08:19:22;;;;;;;;;;;;;;;;;;5073458;28;19979;-70
2022/06/25 08:21:48;;;;;;;;;;;;;;;;;;5072595;28;19928;-70
2022/06/25 08:24:14;;;;;;;;;;;;;;;;;;5073073;28;19920;-70
2022/06/25 08:26:40;;;;;;;;;;;;;;;;;;5084389;28;19920;-70
2022/06/25 08:29:06;;;;;;;;;;;;;;;;;;5092565;28;19920;-70
2022/06/25 08:31:32;;;;;;;;;;;;;;;;;;5093441;28;19920;-70
2022/06/25 08:33:58;;;;;;;;;;;;;;;;;;5093482;28;19931;-70
2022/06/25 08:36:24;;;;;;;;;;;;;;;;;;5092781;28;20307;-70
2022/06/25 08:38:51;;;;;;;;;;;;;;;;;;5093314;28;19934;-70
2022/06/25 08:41:17;;;;;;;;;;;;;;;;;;5092979;28;19959;-70
2022/06/25 08:43:43;;;;;;;;;;;;;;;;;;5092302;28;20036;-70
2022/06/25 08:46:09;;;;;;;;;;;;;;;;;;5093135;28;20054;-70
2022/06/25 08:48:37;;;;;;;;;;;;;;;;;;5093186;28;19920;-70
2022/06/25 08:51:03;;;;;;;;;;;;;;;;;;5090881;28;20267;-70
2022/06/25 08:53:29;;;;;;;;;;;;;;;;;;5092940;28;20362;-70
2022/06/25 08:55:54;;;;;;;;;;;;;;;;;;5092910;28;19928;-70
2022/06/25 08:58:21;;;;;;;;;;;;;;;;;;5092313;28;19920;-70
2022/06/25 09:00:47;;;;;;;;;;;;;;;;;;5092783;28;20011;-70
2022/06/25 09:03:13;;;;;;;;;;;;;;;;;;5092936;28;20018;-70
2022/06/25 09:05:40;;;;;;;;;;;;;;;;;;5092156;28;20406;-70
2022/06/25 09:08:06;;;;;;;;;;;;;;;;;;5092464;28;19920;-70
2022/06/25 09:10:32;;;;;;;;;;;;;;;;;;5091025;28;19924;-70
2022/06/25 09:12:58;;;;;;;;;;;;;;;;;;5092143;28;20468;-70
2022/06/25 09:15:24;;;;;;;;;;;;;;;;;;5092502;28;20015;-70
2022/06/25 09:17:50;;;;;;;;;;;;;;;;;;5092561;28;19927;-70
2022/06/25 09:20:16;;;;;;;;;;;;;;;;;;5091881;28;19920;-70
2022/06/25 09:22:42;;;;;;;;;;;;;;;;;;5090918;28;19924;-70
2022/06/25 09:25:08;;;;;;;;;;;;;;;;;;5092468;28;19978;-70
2022/06/25 09:27:35;;;;;;;;;;;;;;;;;;5072018;28;19920;-70
2022/06/25 09:30:01;;;;;;;;;;;;;;;;;;5072174;28;19921;-70
2022/06/25 09:32:27;;;;;;;;;;;;;;;;;;5072248;28;20443;-70
2022/06/25 09:34:53;;;;;;;;;;;;;;;;;;5071416;28;19928;-70
2022/06/25 09:37:19;;;;;;;;;;;;;;;;;;5071666;28;19948;-70
2022/06/25 09:39:46;;;;;;;;;;;;;;;;;;5071752;28;19924;-70
2022/06/25 09:42:12;;;;;;;;;;;;;;;;;;5071276;28;20295;-70
2022/06/25 09:44:37;;;;;;;;;;;;;;;;;;5071651;28;19925;-70
2022/06/25 09:47:03;;;;;;;;;;;;;;;;;;5072011;28;19924;-70
2022/06/25 09:49:29;;;;;;;;;;;;;;;;;;5071367;28;19943;-70
2022/06/25 09:51:55;;;;;;;;;;;;;;;;;;5071970;28;19920;-70
2022/06/25 09:54:21;;;;;;;;;;;;;;;;;;5071861;28;19947;-70
2022/06/25 09:56:47;;;;;;;;;;;;;;;;;;5071243;28;19924;-70
2022/06/25 09:59:13;;;;;;;;;;;;;;;;;;5071844;28;20015;-70
2022/06/25 10:01:40;;;;;;;;;;;;;;;;;;5071826;28;19928;-70
2022/06/25 10:04:06;;;;;;;;;;;;;;;;;;5071248;28;19932;-70
2022/06/25 10:06:32;;;;;;;;;;;;;;;;;;5071256;28;19924;-70
2022/06/25 10:08:58;;;;;;;;;;;;;;;;;;5070638;28;19927;-70
2022/06/25 10:11:24;;;;;;;;;;;;;;;;;;5071682;28;19920;-70
2022/06/25 10:13:51;;;;;;;;;;;;;;;;;;5071081;28;19974;-70
2022/06/25 10:16:17;;;;;;;;;;;;;;;;;;5071914;28;19928;-70
2022/06/25 10:18:42;;;;;;;;;;;;;;;;;;5071462;28;20398;-70
2022/06/25 10:21:08;;;;;;;;;;;;;;;;;;5071007;28;19925;-70
2022/06/25 10:23:34;;;;;;;;;;;;;;;;;;5071367;28;20061;-70
2022/06/25 10:26:00;;;;;;;;;;;;;;;;;;5078241;28;19970;-70
2022/06/25 10:28:26;;;;;;;;;;;;;;;;;;5091191;28;20415;-70
2022/06/25 10:30:52;;;;;;;;;;;;;;;;;;5091762;28;19950;-70
2022/06/25 10:33:18;;;;;;;;;;;;;;;;;;5091368;28;19924;-70
2022/06/25 10:35:44;;;;;;;;;;;;;;;;;;5090925;28;20274;-70
2022/06/25 10:38:10;;;;;;;;;;;;;;;;;;5091652;28;19920;-70
2022/06/25 10:40:36;;;;;;;;;;;;;;;;;;5091694;28;19965;-70
2022/06/25 10:43:03;;;;;;;;;;;;;;;;;;5090826;28;19974;-70
2022/06/25 10:45:29;;;;;;;;;;;;;;;;;;5091778;28;19946;-69
2022/06/25 10:47:58;;;;;;;;;;;;;;;;;;5091732;28;20274;-69
2022/06/25 10:50:27;;;;;;;;;;;;;;;;;;5094024;28;19920;-69
2022/06/25 10:52:53;;;;;;;;;;;;;;;;;;5095467;28;19924;-69
2022/06/25 10:55:19;;;;;;;;;;;;;;;;;;5095287;28;19954;-69
2022/06/25 10:57:45;;;;;;;;;;;;;;;;;;5093040;28;19920;-69
2022/06/25 11:00:11;;;;;;;;;;;;;;;;;;5095061;28;19927;-69
2022/06/25 11:02:37;;;;;;;;;;;;;;;;;;5095120;28;19920;-69
2022/06/25 11:05:03;;;;;;;;;;;;;;;;;;5094515;28;19946;-69
2022/06/25 11:07:29;;;;;;;;;;;;;;;;;;5095143;28;20026;-69
2022/06/25 11:09:55;;;;;;;;;;;;;;;;;;5094920;28;19923;-69
2022/06/25 11:12:21;;;;;;;;;;;;;;;;;;5094191;28;19924;-69
2022/06/25 11:14:47;;;;;;;;;;;;;;;;;;5094912;28;19924;-69
2022/06/25 11:17:13;;;;;;;;;;;;;;;;;;5094841;28;19931;-69
2022/06/25 11:19:39;;;;;;;;;;;;;;;;;;5094304;28;19926;-69
2022/06/25 11:22:05;;;;;;;;;;;;;;;;;;5094746;28;20322;-69
2022/06/25 11:24:31;;;;;;;;;;;;;;;;;;5094697;28;19920;-69
2022/06/25 11:29:46;;;;;;;;;;;;;;;;;;5074313;28;20302;-69
2022/06/25 11:32:12;;;;;;;;;;;;;;;;;;5074292;28;19920;-69
2022/06/25 11:34:38;;;;;;;;;;;;;;;;;;5073680;28;20348;-70
2022/06/25 11:37:04;;;;;;;;;;;;;;;;;;5074233;28;19920;-69
2022/06/25 11:39:30;;;;;;;;;;;;;;;;;;5074156;28;19921;-69
2022/06/25 11:41:56;;;;;;;;;;;;;;;;;;5073406;28;19921;-69
2022/06/25 11:44:22;;;;;;;;;;;;;;;;;;5073715;28;19944;-69
2022/06/25 11:46:48;;;;;;;;;;;;;;;;;;5074247;28;19920;-69
2022/06/25 11:49:14;;;;;;;;;;;;;;;;;;5073137;28;19928;-69
2022/06/25 11:51:40;;;;;;;;;;;;;;;;;;5073986;28;20263;-70
2022/06/25 11:54:06;;;;;;;;;;;;;;;;;;5073964;28;20030;-70
2022/06/25 11:56:32;;;;;;;;;;;;;;;;;;5073342;28;20002;-70
2022/06/25 11:58:58;;;;;;;;;;;;;;;;;;5073942;28;19932;-70
2022/06/25 12:01:24;;;;;;;;;;;;;;;;;;5073408;28;19920;-70
2022/06/25 12:03:50;;;;;;;;;;;;;;;;;;5073270;28;19920;-70
2022/06/25 12:06:16;;;;;;;;;;;;;;;;;;5073873;28;19921;-70
2022/06/25 12:08:42;;;;;;;;;;;;;;;;;;5073730;28;20500;-70
2022/06/25 12:11:08;;;;;;;;;;;;;;;;;;5073111;28;19960;-70
2022/06/25 12:13:34;;;;;;;;;;;;;;;;;;5073649;28;19925;-70
2022/06/25 12:16:00;;;;;;;;;;;;;;;;;;5073773;28;19985;-69
2022/06/25 12:18:26;;;;;;;;;;;;;;;;;;5072536;28;19989;-69
2022/06/25 12:20:52;;;;;;;;;;;;;;;;;;5073386;28;19978;-69
2022/06/25 12:23:18;;;;;;;;;;;;;;;;;;5073435;28;19960;-69
2022/06/25 12:25:44;;;;;;;;;;;;;;;;;;5075371;28;19969;-69
2022/06/25 12:28:10;;;;;;;;;;;;;;;;;;5093629;28;20298;-69
2022/06/25 12:30:36;;;;;;;;;;;;;;;;;;5093198;28;19920;-69
2022/06/25 12:33:01;;;;;;;;;;;;;;;;;;5092881;28;19951;-69
2022/06/25 12:35:27;;;;;;;;;;;;;;;;;;5093274;28;19930;-69
2022/06/25 12:37:53;;;;;;;;;;;;;;;;;;5092997;28;19942;-69
2022/06/25 12:40:19;;;;;;;;;;;;;;;;;;5092559;28;19920;-69
2022/06/25 12:42:45;;;;;;;;;;;;;;;;;;5092892;28;19924;-70
2022/06/25 12:45:11;;;;;;;;;;;;;;;;;;5093117;28;19950;-70
2022/06/25 12:47:37;;;;;;;;;;;;;;;;;;5092501;28;20337;-70
2022/06/25 12:50:05;;;;;;;;;;;;;;;;;;5093027;28;20015;-70
2022/06/25 12:52:31;;;;;;;;;;;;;;;;;;5092800;28;19921;-70
2022/06/25 12:54:57;;;;;;;;;;;;;;;;;;5092324;28;19974;-70
2022/06/25 12:57:23;;;;;;;;;;;;;;;;;;5092734;28;19924;-70
2022/06/25 12:59:49;;;;;;;;;;;;;;;;;;5092848;28;19978;-69
2022/06/25 13:02:15;;;;;;;;;;;;;;;;;;5092160;28;20496;-69
2022/06/25 13:04:42;;;;;;;;;;;;;;;;;;5092931;28;19920;-69
2022/06/25 13:07:08;;;;;;;;;;;;;;;;;;5092564;28;20065;-69
2022/06/25 13:09:34;;;;;;;;;;;;;;;;;;5092076;28;20019;-69
2022/06/25 13:12:00;;;;;;;;;;;;;;;;;;5091720;28;19920;-69
2022/06/25 13:14:26;;;;;;;;;;;;;;;;;;5092626;28;19928;-69
2022/06/25 13:16:52;;;;;;;;;;;;;;;;;;5092198;28;20263;-69
2022/06/25 13:19:18;;;;;;;;;;;;;;;;;;5092616;28;19920;-69
2022/06/25 13:21:44;;;;;;;;;;;;;;;;;;5092447;28;20024;-69
2022/06/25 13:24:09;;;;;;;;;;;;;;;;;;5091945;28;19949;-69
2022/06/25 13:26:35;;;;;;;;;;;;;;;;;;5080931;28;19955;-69
2022/06/25 13:29:01;;;;;;;;;;;;;;;;;;5072355;28;19927;-69
2022/06/25 13:31:27;;;;;;;;;;;;;;;;;;5071444;28;19984;-69
2022/06/25 13:33:53;;;;;;;;;;;;;;;;;;5072078;28;19925;-69
2022/06/25 13:36:19;;;;;;;;;;;;;;;;;;5072162;28;20319;-69
2022/06/25 13:38:45;;;;;;;;;;;;;;;;;;5071657;28;19921;-69
2022/06/25 13:41:11;;;;;;;;;;;;;;;;;;5071925;28;20248;-70
2022/06/25 13:43:37;;;;;;;;;;;;;;;;;;5071613;28;19978;-70
2022/06/25 13:46:03;;;;;;;;;;;;;;;;;;5072135;28;19946;-70
2022/06/25 13:48:29;;;;;;;;;;;;;;;;;;5071493;28;19924;-70
2022/06/25 13:50:55;;;;;;;;;;;;;;;;;;5071903;28;20036;-70
2022/06/25 13:53:22;;;;;;;;;;;;;;;;;;5071974;28;20050;-70
2022/06/25 13:55:50;;;;;;;;;;;;;;;;;;5071351;28;19924;-69
2022/06/25 13:58:16;;;;;;;;;;;;;;;;;;5071920;28;20347;-69
2022/06/25 14:00:42;;;;;;;;;;;;;;;;;;5071830;28;19932;-69
2022/06/25 14:03:10;;;;;;;;;;;;;;;;;;5071471;28;19921;-69
2022/06/25 14:05:36;;;;;;;;;;;;;;;;;;5071939;28;20317;-69
2022/06/25 14:08:02;;;;;;;;;;;;;;;;;;5071908;28;19920;-69
2022/06/25 14:10:28;;;;;;;;;;;;;;;;;;5071154;28;20314;-69
2022/06/25 14:12:54;;;;;;;;;;;;;;;;;;5071690;28;19920;-69
2022/06/25 14:15:20;;;;;;;;;;;;;;;;;;5071697;28;19993;-70
2022/06/25 14:17:46;;;;;;;;;;;;;;;;;;5070731;28;19968;-69
2022/06/25 14:20:12;;;;;;;;;;;;;;;;;;5071656;28;19952;-69
2022/06/25 14:22:38;;;;;;;;;;;;;;;;;;5071950;28;20286;-69
2022/06/25 14:25:24;;;;;;;;;;;;;;;;;;5074966;28;20003;-69
2022/06/25 14:27:50;;;;;;;;;;;;;;;;;;5075578;28;20380;-69
2022/06/25 14:30:16;;;;;;;;;;;;;;;;;;5075152;28;20017;-69
2022/06/25 14:32:42;;;;;;;;;;;;;;;;;;5074965;28;19943;-69
2022/06/25 14:35:07;;;;;;;;;;;;;;;;;;5075473;28;19947;-69
2022/06/25 14:43:03;;;;;;;;;;;;;;;;;;5074927;28;20323;-69
2022/06/25 14:45:29;;;;;;;;;;;;;;;;;;5074597;28;20013;-69
2022/06/25 14:47:55;;;;;;;;;;;;;;;;;;5074898;28;19943;-69
2022/06/25 14:50:20;;;;;;;;;;;;;;;;;;5075138;28;20144;-69
2022/06/25 14:52:46;;;;;;;;;;;;;;;;;;5074672;28;19942;-69
2022/06/25 14:55:12;;;;;;;;;;;;;;;;;;5074848;28;19929;-69
2022/06/25 14:57:38;;;;;;;;;;;;;;;;;;5074964;28;19924;-69
2022/06/25 15:00:04;;;;;;;;;;;;;;;;;;5074973;28;19924;-69
2022/06/25 15:02:30;;;;;;;;;;;;;;;;;;5074504;28;19920;-69
2022/06/25 15:04:56;;;;;;;;;;;;;;;;;;5074929;28;20015;-69
2022/06/25 15:07:22;;;;;;;;;;;;;;;;;;5074884;28;19924;-69
2022/06/25 15:09:48;;;;;;;;;;;;;;;;;;5074155;28;19928;-69
2022/06/25 15:12:14;;;;;;;;;;;;;;;;;;5074607;28;19927;-69
2022/06/25 15:14:40;;;;;;;;;;;;;;;;;;5074936;28;19924;-69
2022/06/25 15:17:06;;;;;;;;;;;;;;;;;;5074084;28;19920;-69
2022/06/25 15:19:32;;;;;;;;;;;;;;;;;;5074743;28;19936;-69
2022/06/25 15:21:58;;;;;;;;;;;;;;;;;;5074535;28;19927;-69
2022/06/25 15:24:24;;;;;;;;;;;;;;;;;;5073953;28;19981;-69
2022/06/25 15:26:50;;;;;;;;;;;;;;;;;;5088139;28;19920;-69
2022/06/25 15:29:16;;;;;;;;;;;;;;;;;;5094792;28;19920;-69
2022/06/25 15:31:42;;;;;;;;;;;;;;;;;;5093985;28;20007;-69
2022/06/25 15:34:08;;;;;;;;;;;;;;;;;;5094451;28;19985;-69
2022/06/25 15:36:34;;;;;;;;;;;;;;;;;;5093977;28;20002;-69
2022/06/25 15:39:00;;;;;;;;;;;;;;;;;;5093713;28;19968;-69
2022/06/25 15:41:26;;;;;;;;;;;;;;;;;;5094101;28;20298;-69
2022/06/25 15:43:52;;;;;;;;;;;;;;;;;;5094133;28;19924;-69
2022/06/25 15:46:17;;;;;;;;;;;;;;;;;;5093896;28;19920;-69
2022/06/25 15:48:43;;;;;;;;;;;;;;;;;;5094201;28;19963;-69
2022/06/25 15:51:10;;;;;;;;;;;;;;;;;;5094315;28;20011;-69
2022/06/25 15:53:36;;;;;;;;;;;;;;;;;;5093345;28;19920;-69
2022/06/25 15:56:02;;;;;;;;;;;;;;;;;;5094207;28;19920;-69
2022/06/25 15:59:27;;;;;;;;;;;;;;;;;;5094029;28;19942;-69
2022/06/25 16:01:13;;;;;;;;;;;;;;;;;;5093027;28;19929;-69
2022/06/25 16:03:39;;;;;;;;;;;;;;;;;;5094129;28;19975;-69
2022/06/25 16:06:05;;;;;;;;;;;;;;;;;;5094089;28;19927;-69
2022/06/25 16:08:31;;;;;;;;;;;;;;;;;;5093042;28;20368;-69
2022/06/25 16:10:57;;;;;;;;;;;;;;;;;;5093814;28;19920;-69
2022/06/25 16:13:23;;;;;;;;;;;;;;;;;;5093582;28;19919;-69
2022/06/25 16:15:49;;;;;;;;;;;;;;;;;;5093215;28;19924;-69
2022/06/25 16:18:15;;;;;;;;;;;;;;;;;;5093592;28;19978;-69
2022/06/25 16:20:41;;;;;;;;;;;;;;;;;;5093265;28;19920;-69
2022/06/25 16:23:07;;;;;;;;;;;;;;;;;;5093079;28;19967;-69
2022/06/25 16:25:33;;;;;;;;;;;;;;;;;;5090699;28;20007;-69
2022/06/25 16:27:59;;;;;;;;;;;;;;;;;;5073208;28;19947;-69
2022/06/25 16:30:25;;;;;;;;;;;;;;;;;;5072550;28;19920;-69
2022/06/25 16:32:51;;;;;;;;;;;;;;;;;;5073262;28;19966;-69
2022/06/25 16:35:17;;;;;;;;;;;;;;;;;;5073190;28;19951;-69
2022/06/25 16:37:43;;;;;;;;;;;;;;;;;;5072484;28;19973;-69
2022/06/25 16:40:09;;;;;;;;;;;;;;;;;;5073007;28;19924;-69
2022/06/25 16:42:35;;;;;;;;;;;;;;;;;;5072882;28;19926;-69
2022/06/25 16:45:01;;;;;;;;;;;;;;;;;;5072456;28;19921;-69
2022/06/25 16:47:27;;;;;;;;;;;;;;;;;;5072054;28;19931;-69
2022/06/25 16:49:53;;;;;;;;;;;;;;;;;;5072731;28;19924;-69
2022/06/25 16:52:19;;;;;;;;;;;;;;;;;;5071969;28;19928;-69
2022/06/25 16:54:45;;;;;;;;;;;;;;;;;;5072757;28;19924;-69